Darling River — VRET8 — position and weather

sailwx.info

Track history (hours):
 
Tides and Currents Weather Stations Pressure Air Temp Water Temp Dewpoint Dewpoint Depression Visibility Wind Speed Wind Dir Waves Ship Positions

Darling River

Last reported at 2017-Dec-09 07:04 UTC. Time now 2017-Dec-14 06:31 UTC.
Position N 51°02' E 001°28'.

Length 180 m; draft 6.4 m.

Type: Cargo ship. MMSI: 366916024.

Date/timePositionNaut miles runAvg speedWind from/ knotsBaromVisibWave heightAir tempDewpointWater temp
2017-Dec-09 07:04N 51°02' E 001°28'111.1
2017-Dec-09 07:00N 51°02' E 001°28'611.1
2017-Dec-09 06:29N 51°06' E 001°35'510.3
2017-Dec-09 06:00N 51°10' E 001°41'610.0
2017-Dec-09 05:27N 51°14' E 001°46'410.2
2017-Dec-09 05:01N 51°18' E 001°50'510.5
2017-Dec-09 04:30N 51°23' E 001°53'5 9.2
2017-Dec-09 04:00N 51°25' E 001°59'7 9.5
2017-Dec-09 03:14N 51°22' E 002°10'2 9.8
2017-Dec-09 03:00N 51°21' E 002°13'5 9.2
2017-Dec-09 02:30N 51°21' E 002°21'510.5
2017-Dec-09 01:59N 51°23' E 002°29'510.4
2017-Dec-09 01:30N 51°22' E 002°37'510.5
2017-Dec-09 01:00N 51°24' E 002°45'510.5
2017-Dec-09 00:30N 51°25' E 002°53'510.2
2017-Dec-09 00:00N 51°25' E 003°01'510.1
2017-Dec-08 23:31N 51°24' E 003°09'611.5
2017-Dec-08 23:00N 51°24' E 003°19'612.1
2017-Dec-08 22:29N 51°25' E 003°29'5 9.6
2017-Dec-08 21:59N 51°26' E 003°36'5 9.6
2017-Dec-08 21:30N 51°24' E 003°43'612.5
2017-Dec-08 21:00N 51°21' E 003°51'713.1
2017-Dec-08 20:30N 51°26' E 003°58'510.1
2017-Dec-08 20:00N 51°22' E 004°04'6 9.2
2017-Dec-08 19:21N 51°22' E 004°14'3 9.0
2017-Dec-08 19:00N 51°19' E 004°16'3 6.5
2017-Dec-08 18:31N 51°17' E 004°20'0 0.0
2017-Dec-08 18:01N 51°17' E 004°20'0 0.7
2017-Dec-08 17:30N 51°17' E 004°21'0 0.7
2017-Dec-08 16:53N 51°17' E 004°20'0 0.0
2017-Dec-08 16:29N 51°17' E 004°20'0 0.0
2017-Dec-08 15:59N 51°17' E 004°20'0 0.0
2017-Dec-08 15:26N 51°17' E 004°20'0 0.0
2017-Dec-08 14:56N 51°17' E 004°20'0 0.0
2017-Dec-08 14:29N 51°17' E 004°20'0 0.0
2017-Dec-08 13:59N 51°17' E 004°20'0 0.0
2017-Dec-08 13:23N 51°17' E 004°20'0 0.0
2017-Dec-08 12:56N 51°17' E 004°20'0 0.0
2017-Dec-08 12:29N 51°17' E 004°20'0 0.0
2017-Dec-08 11:59N 51°17' E 004°20'0 0.0
2017-Dec-08 11:29N 51°17' E 004°20'0 0.0
2017-Dec-08 10:59N 51°17' E 004°20'0 0.0
2017-Dec-08 10:29N 51°17' E 004°20'0 0.0
2017-Dec-08 09:59N 51°17' E 004°20'0 0.0
2017-Dec-08 09:23N 51°17' E 004°20'0 0.0
2017-Dec-08 08:59N 51°17' E 004°20'0 0.0
2017-Dec-08 08:29N 51°17' E 004°20'0 0.0
2017-Dec-08 07:59N 51°17' E 004°20'0 0.0
2017-Dec-08 07:26N 51°17' E 004°20'0 0.0
2017-Dec-08 06:59N 51°17' E 004°20'0 0.0
2017-Dec-08 06:26N 51°17' E 004°20'0 0.0
2017-Dec-08 05:56N 51°17' E 004°20'0 0.0
2017-Dec-08 05:26N 51°17' E 004°20'0 0.0
2017-Dec-08 04:59N 51°17' E 004°20'0 0.0
2017-Dec-08 04:29N 51°17' E 004°20'0 0.0
2017-Dec-08 03:59N 51°17' E 004°20'0 0.0
2017-Dec-08 03:29N 51°17' E 004°20'0 0.0
2017-Dec-08 02:56N 51°17' E 004°20'0 0.0
2017-Dec-08 02:26N 51°17' E 004°20'0 0.0
2017-Dec-08 01:59N 51°17' E 004°20'0 0.0
2017-Dec-08 01:29N 51°17' E 004°20'0 0.0
2017-Dec-08 00:59N 51°17' E 004°20'0 0.0
2017-Dec-08 00:26N 51°17' E 004°20'0 0.0
2017-Dec-07 23:59N 51°17' E 004°20'0 0.0
2017-Dec-07 23:26N 51°17' E 004°20'0 0.0
2017-Dec-07 22:56N 51°17' E 004°20'0 0.0
2017-Dec-07 22:29N 51°17' E 004°20'0 0.0
2017-Dec-07 21:59N 51°17' E 004°20'0 0.0
2017-Dec-07 21:23N 51°17' E 004°20'0 0.0
2017-Dec-07 20:59N 51°17' E 004°20'0 0.0
2017-Dec-07 20:29N 51°17' E 004°20'0 0.0
2017-Dec-07 19:59N 51°17' E 004°20'0 0.0
2017-Dec-07 19:29N 51°17' E 004°20'0 0.0
2017-Dec-07 18:59N 51°17' E 004°20'0 0.0
2017-Dec-07 18:29N 51°17' E 004°20'0 0.0
2017-Dec-07 17:59N 51°17' E 004°20'0 0.0
2017-Dec-07 17:29N 51°17' E 004°20'0 0.0
2017-Dec-07 16:59N 51°17' E 004°20'0 0.0
2017-Dec-07 16:29N 51°17' E 004°20'0 0.0
2017-Dec-07 15:59N 51°17' E 004°20'0 0.0
2017-Dec-07 15:29N 51°17' E 004°20'0 0.0
2017-Dec-07 14:59N 51°17' E 004°20'0 0.0
2017-Dec-07 14:29N 51°17' E 004°20'0 0.0
2017-Dec-07 13:59N 51°17' E 004°20'0 0.0
2017-Dec-07 13:29N 51°17' E 004°20'0 0.0
2017-Dec-07 12:59N 51°17' E 004°20'0 0.0
2017-Dec-07 12:29N 51°17' E 004°20'0 0.0
2017-Dec-07 11:59N 51°17' E 004°20'0 0.0
2017-Dec-07 11:29N 51°17' E 004°20'0 0.0
2017-Dec-07 10:59N 51°17' E 004°20'0 0.0
2017-Dec-07 10:29N 51°17' E 004°20'0 0.0
2017-Dec-07 09:59N 51°17' E 004°20'0 0.0
2017-Dec-07 09:29N 51°17' E 004°20'0 0.0
2017-Dec-07 08:59N 51°17' E 004°20'0 0.0
2017-Dec-07 08:29N 51°17' E 004°20'0 0.0
2017-Dec-07 07:53N 51°17' E 004°20'0 0.0
2017-Dec-07 07:29N 51°17' E 004°20'0 0.0
2017-Dec-07 06:56N 51°17' E 004°20'0 0.0
2017-Dec-07 06:29N 51°17' E 004°20'0 0.0
2017-Dec-07 05:59N 51°17' E 004°20'0 0.0
2017-Dec-07 05:23N 51°17' E 004°20'0 0.0
2017-Dec-07 04:59N 51°17' E 004°20'0 0.0
2017-Dec-07 04:17N 51°17' E 004°20'0 0.0
2017-Dec-07 03:56N 51°17' E 004°20'0 0.0
2017-Dec-07 03:29N 51°17' E 004°20'0 0.0
2017-Dec-07 02:59N 51°17' E 004°20'0 0.0
2017-Dec-07 02:29N 51°17' E 004°20'0 0.0
2017-Dec-07 01:59N 51°17' E 004°20'0 0.0
2017-Dec-07 01:29N 51°17' E 004°20'0 0.0
2017-Dec-07 00:56N 51°17' E 004°20'0 0.0
2017-Dec-07 00:29N 51°17' E 004°20'0 0.0
2017-Dec-06 23:53N 51°17' E 004°20'0 0.0
2017-Dec-06 23:29N 51°17' E 004°20'0 0.0
2017-Dec-06 22:59N 51°17' E 004°20'0 0.0
2017-Dec-06 22:29N 51°17' E 004°20'0 0.0
2017-Dec-06 21:59N 51°17' E 004°20'0 0.0
2017-Dec-06 21:11N 51°17' E 004°20'0 0.0
2017-Dec-06 20:59N 51°17' E 004°20'  
2017-Dec-04 10:23N 51°17' E 004°20'0 0.0
2017-Dec-04 09:53N 51°17' E 004°20'0 0.0
2017-Dec-04 09:29N 51°17' E 004°20'0 0.0
2017-Dec-04 08:56N 51°17' E 004°20'0 0.0
2017-Dec-04 08:29N 51°17' E 004°20'0 0.0
2017-Dec-04 07:59N 51°17' E 004°20'0 0.0
2017-Dec-04 07:29N 51°17' E 004°20'0 0.0
2017-Dec-04 06:56N 51°17' E 004°20'0 0.0
2017-Dec-04 06:29N 51°17' E 004°20'0 0.0
2017-Dec-04 05:59N 51°17' E 004°20'0 0.0
2017-Dec-04 05:29N 51°17' E 004°20'0 0.0
2017-Dec-04 04:53N 51°17' E 004°20'0 0.0
2017-Dec-04 04:26N 51°17' E 004°20'0 0.0
2017-Dec-04 03:59N 51°17' E 004°20'0 0.0
2017-Dec-04 03:29N 51°17' E 004°20'0 0.0
2017-Dec-04 02:59N 51°17' E 004°20'0 0.0
2017-Dec-04 02:23N 51°17' E 004°20'0 0.0
2017-Dec-04 01:59N 51°17' E 004°20'0 0.0
2017-Dec-04 01:29N 51°17' E 004°20'0 0.0
2017-Dec-04 00:53N 51°17' E 004°20'0 0.0
2017-Dec-04 00:29N 51°17' E 004°20'0 0.0
2017-Dec-03 23:59N 51°17' E 004°20'0 0.0
2017-Dec-03 23:29N 51°17' E 004°20'0 0.0
2017-Dec-03 22:59N 51°17' E 004°20'0 0.0
2017-Dec-03 22:29N 51°17' E 004°20'0 0.0
2017-Dec-03 21:59N 51°17' E 004°20'0 0.0
2017-Dec-03 21:29N 51°17' E 004°20'0 0.0
2017-Dec-03 20:59N 51°17' E 004°20'0 0.0
2017-Dec-03 20:29N 51°17' E 004°20'0 0.0
2017-Dec-03 19:53N 51°17' E 004°20'0 0.0
2017-Dec-03 19:29N 51°17' E 004°20'0 0.0
2017-Dec-03 18:59N 51°17' E 004°20'0 0.0
2017-Dec-03 18:29N 51°17' E 004°20'0 0.0
2017-Dec-03 17:59N 51°17' E 004°20'0 0.0
2017-Dec-03 17:29N 51°17' E 004°20'0 0.0
2017-Dec-03 16:59N 51°17' E 004°20'0 0.0
2017-Dec-03 16:29N 51°17' E 004°20'0 0.0
2017-Dec-03 15:59N 51°17' E 004°20'0 0.0
2017-Dec-03 15:29N 51°17' E 004°20'0 0.0
2017-Dec-03 14:59N 51°17' E 004°20'0 0.0
2017-Dec-03 14:29N 51°17' E 004°20'0 0.0
2017-Dec-03 13:56N 51°17' E 004°20'0 0.0
2017-Dec-03 13:29N 51°17' E 004°20'0 0.0
2017-Dec-03 12:59N 51°17' E 004°20'0 0.0
2017-Dec-03 12:26N 51°17' E 004°20'0 0.0
2017-Dec-03 11:59N 51°17' E 004°20'0 0.0
2017-Dec-03 11:29N 51°17' E 004°20'0 0.0
2017-Dec-03 10:59N 51°17' E 004°20'0 0.0
2017-Dec-03 10:29N 51°17' E 004°20'0 0.0
2017-Dec-03 09:59N 51°17' E 004°20'0 0.0
2017-Dec-03 09:29N 51°17' E 004°20'0 0.0
2017-Dec-03 08:59N 51°17' E 004°20'0 0.0
2017-Dec-03 08:26N 51°17' E 004°20'0 0.0
2017-Dec-03 07:59N 51°17' E 004°20'0 0.0
2017-Dec-03 07:29N 51°17' E 004°20'0 0.0
2017-Dec-03 06:59N 51°17' E 004°20'0 0.0
2017-Dec-03 06:26N 51°17' E 004°20'0 0.0
2017-Dec-03 05:56N 51°17' E 004°20'0 0.0
2017-Dec-03 05:29N 51°17' E 004°20'0 0.0
2017-Dec-03 04:59N 51°17' E 004°20'0 0.0
2017-Dec-03 04:23N 51°17' E 004°20'0 0.0
2017-Dec-03 03:59N 51°17' E 004°20'0 0.0
2017-Dec-03 03:29N 51°17' E 004°20'0 0.0
2017-Dec-03 02:56N 51°17' E 004°20'0 0.0
2017-Dec-03 02:29N 51°17' E 004°20'0 0.0
2017-Dec-03 01:59N 51°17' E 004°20'0 0.0
2017-Dec-03 01:29N 51°17' E 004°20'0 0.0
2017-Dec-03 00:59N 51°17' E 004°20'0 0.0
2017-Dec-03 00:29N 51°17' E 004°20'0 0.0
2017-Dec-02 23:50N 51°17' E 004°20'0 0.0
2017-Dec-02 23:20N 51°17' E 004°20'0 0.0
2017-Dec-02 22:53N 51°17' E 004°20'0 0.0
2017-Dec-02 22:23N 51°17' E 004°20'0 0.0
2017-Dec-02 21:56N 51°17' E 004°20'0 0.0
2017-Dec-02 21:29N 51°17' E 004°20'0 0.0
2017-Dec-02 20:59N 51°17' E 004°20'0 0.0
2017-Dec-02 20:29N 51°17' E 004°20'0 0.0
2017-Dec-02 19:59N 51°17' E 004°20'0 0.0
2017-Dec-02 19:29N 51°17' E 004°20'0 0.0
2017-Dec-02 18:59N 51°17' E 004°20'0 0.0
2017-Dec-02 18:29N 51°17' E 004°20'0 0.0
2017-Dec-02 17:59N 51°17' E 004°20'0 0.0
2017-Dec-02 17:29N 51°17' E 004°20'0 0.0
2017-Dec-02 16:53N 51°17' E 004°20'0 0.0
2017-Dec-02 16:29N 51°17' E 004°20'0 0.0
2017-Dec-02 15:59N 51°17' E 004°20'0 0.0
2017-Dec-02 15:25N 51°17' E 004°20'0 0.0
2017-Dec-02 14:59N 51°17' E 004°20'0 0.0
2017-Dec-02 14:28N 51°17' E 004°20'0 0.0
2017-Dec-02 13:58N 51°17' E 004°20'0 0.0
2017-Dec-02 13:23N 51°17' E 004°20'0 0.0
2017-Dec-02 12:59N 51°17' E 004°20'0 0.0
2017-Dec-02 12:29N 51°17' E 004°20'0 0.0
2017-Dec-02 11:56N 51°17' E 004°20'0 0.0
2017-Dec-02 11:26N 51°17' E 004°20'0 0.0
2017-Dec-02 10:58N 51°17' E 004°20'0 0.0
2017-Dec-02 10:26N 51°17' E 004°20'0 0.0
2017-Dec-02 09:55N 51°17' E 004°20'0 0.0
2017-Dec-02 09:26N 51°17' E 004°20'0 0.0
2017-Dec-02 08:59N 51°17' E 004°20'0 0.0
2017-Dec-02 08:28N 51°17' E 004°20'0 0.0
2017-Dec-02 07:58N 51°17' E 004°20'0 0.0
2017-Dec-02 07:28N 51°17' E 004°20'0 0.0
2017-Dec-02 06:59N 51°17' E 004°20'0 0.0
2017-Dec-02 06:29N 51°17' E 004°20'0 0.0
2017-Dec-02 05:59N 51°17' E 004°20'0 0.0
2017-Dec-02 05:28N 51°17' E 004°20'0 0.0
2017-Dec-02 04:58N 51°17' E 004°20'0 0.0
2017-Dec-02 04:29N 51°17' E 004°20'0 0.0
2017-Dec-02 03:58N 51°17' E 004°20'0 0.0
2017-Dec-02 03:28N 51°17' E 004°20'0 0.0
2017-Dec-02 02:58N 51°17' E 004°20'0 0.0
2017-Dec-02 02:28N 51°17' E 004°20'0 0.0
2017-Dec-02 01:58N 51°17' E 004°20'0 0.0
2017-Dec-02 01:28N 51°17' E 004°20'0 0.0
2017-Dec-02 00:55N 51°17' E 004°20'0 0.0
2017-Dec-02 00:22N 51°17' E 004°20'0 0.0
2017-Dec-01 23:58N 51°17' E 004°20'0 0.0
2017-Dec-01 23:28N 51°17' E 004°20'0 0.0
2017-Dec-01 22:58N 51°17' E 004°20'0 0.9
2017-Dec-01 22:30N 51°17' E 004°20'0 0.0
2017-Dec-01 22:00N 51°17' E 004°20'0 0.4
2017-Dec-01 21:30N 51°17' E 004°20'3 5.7
2017-Dec-01 21:00N 51°19' E 004°16'611.2
2017-Dec-01 20:30N 51°24' E 004°12'612.5
2017-Dec-01 20:00N 51°23' E 004°02'3 6.4
2017-Dec-01 19:30N 51°23' E 003°57'613.0
2017-Dec-01 19:00N 51°21' E 003°48'611.5
2017-Dec-01 18:30N 51°26' E 003°41'510.1
2017-Dec-01 18:00N 51°25' E 003°33'510.5
2017-Dec-01 17:30N 51°25' E 003°25'511.1
2017-Dec-01 17:00N 51°24' E 003°16'510.3
2017-Dec-01 16:30N 51°24' E 003°08'5 9.6
2017-Dec-01 16:00N 51°24' E 003°00'510.0
2017-Dec-01 15:29N 51°22' E 002°53'510.3
2017-Dec-01 15:00N 51°21' E 002°45'4 8.7
2017-Dec-01 14:30N 51°22' E 002°38'3 5.2
2017-Dec-01 14:00N 51°22' E 002°34'2 4.6
2017-Dec-01 13:29N 51°22' E 002°30'1 2.2
2017-Dec-01 12:59N 51°21' E 002°28'2 3.6
2017-Dec-01 12:29N 51°21' E 002°25'2 4.0
2017-Dec-01 12:00N 51°20' E 002°23'611.6
2017-Dec-01 11:30N 51°17' E 002°14'3 6.1
2017-Dec-01 10:59N 51°16' E 002°10'611.6
2017-Dec-01 10:30N 51°13' E 002°03'611.6
2017-Dec-01 10:00N 51°10' E 001°54'611.4
2017-Dec-01 09:30N 51°07' E 001°47'611.7
2017-Dec-01 09:00N 51°03' E 001°40'133 9.0
2017-Nov-30 18:20N 50°03' W 001°26'412.4
2017-Nov-30 18:00N 50°02' W 001°32'  
Track history (hours):
 
Tides and Currents Weather Stations Pressure Air Temp Water Temp Dewpoint Dewpoint Depression Visibility Wind Speed Wind Dir Waves Ship Positions

Darling River

Last reported at 2017-Dec-09 07:04 UTC. Time now 2017-Dec-14 06:31 UTC.
Position N 51°02' E 001°28'.

Length 180 m; draft 6.4 m.

Type: Cargo ship. MMSI: 366916024.

Date/timePositionNaut miles runAvg speedWind from/ knotsBaromVisibWave heightAir tempDewpointWater temp
2017-Dec-09 07:04N 51°02' E 001°28'111.1
2017-Dec-09 07:00N 51°02' E 001°28'611.1
2017-Dec-09 06:29N 51°06' E 001°35'510.3
2017-Dec-09 06:00N 51°10' E 001°41'610.0
2017-Dec-09 05:27N 51°14' E 001°46'410.2
2017-Dec-09 05:01N 51°18' E 001°50'510.5
2017-Dec-09 04:30N 51°23' E 001°53'5 9.2
2017-Dec-09 04:00N 51°25' E 001°59'7 9.5
2017-Dec-09 03:14N 51°22' E 002°10'2 9.8
2017-Dec-09 03:00N 51°21' E 002°13'5 9.2
2017-Dec-09 02:30N 51°21' E 002°21'510.5
2017-Dec-09 01:59N 51°23' E 002°29'510.4
2017-Dec-09 01:30N 51°22' E 002°37'510.5
2017-Dec-09 01:00N 51°24' E 002°45'510.5
2017-Dec-09 00:30N 51°25' E 002°53'510.2
2017-Dec-09 00:00N 51°25' E 003°01'510.1
2017-Dec-08 23:31N 51°24' E 003°09'611.5
2017-Dec-08 23:00N 51°24' E 003°19'612.1
2017-Dec-08 22:29N 51°25' E 003°29'5 9.6
2017-Dec-08 21:59N 51°26' E 003°36'5 9.6
2017-Dec-08 21:30N 51°24' E 003°43'612.5
2017-Dec-08 21:00N 51°21' E 003°51'713.1
2017-Dec-08 20:30N 51°26' E 003°58'510.1
2017-Dec-08 20:00N 51°22' E 004°04'6 9.2
2017-Dec-08 19:21N 51°22' E 004°14'3 9.0
2017-Dec-08 19:00N 51°19' E 004°16'3 6.5
2017-Dec-08 18:31N 51°17' E 004°20'0 0.0
2017-Dec-08 18:01N 51°17' E 004°20'0 0.7
2017-Dec-08 17:30N 51°17' E 004°21'0 0.7
2017-Dec-08 16:53N 51°17' E 004°20'0 0.0
2017-Dec-08 16:29N 51°17' E 004°20'0 0.0
2017-Dec-08 15:59N 51°17' E 004°20'0 0.0
2017-Dec-08 15:26N 51°17' E 004°20'0 0.0
2017-Dec-08 14:56N 51°17' E 004°20'0 0.0
2017-Dec-08 14:29N 51°17' E 004°20'0 0.0
2017-Dec-08 13:59N 51°17' E 004°20'0 0.0
2017-Dec-08 13:23N 51°17' E 004°20'0 0.0
2017-Dec-08 12:56N 51°17' E 004°20'0 0.0
2017-Dec-08 12:29N 51°17' E 004°20'0 0.0
2017-Dec-08 11:59N 51°17' E 004°20'0 0.0
2017-Dec-08 11:29N 51°17' E 004°20'0 0.0
2017-Dec-08 10:59N 51°17' E 004°20'0 0.0
2017-Dec-08 10:29N 51°17' E 004°20'0 0.0
2017-Dec-08 09:59N 51°17' E 004°20'0 0.0
2017-Dec-08 09:23N 51°17' E 004°20'0 0.0
2017-Dec-08 08:59N 51°17' E 004°20'0 0.0
2017-Dec-08 08:29N 51°17' E 004°20'0 0.0
2017-Dec-08 07:59N 51°17' E 004°20'0 0.0
2017-Dec-08 07:26N 51°17' E 004°20'0 0.0
2017-Dec-08 06:59N 51°17' E 004°20'0 0.0
2017-Dec-08 06:26N 51°17' E 004°20'0 0.0
2017-Dec-08 05:56N 51°17' E 004°20'0 0.0
2017-Dec-08 05:26N 51°17' E 004°20'0 0.0
2017-Dec-08 04:59N 51°17' E 004°20'0 0.0
2017-Dec-08 04:29N 51°17' E 004°20'0 0.0
2017-Dec-08 03:59N 51°17' E 004°20'0 0.0
2017-Dec-08 03:29N 51°17' E 004°20'0 0.0
2017-Dec-08 02:56N 51°17' E 004°20'0 0.0
2017-Dec-08 02:26N 51°17' E 004°20'0 0.0
2017-Dec-08 01:59N 51°17' E 004°20'0 0.0
2017-Dec-08 01:29N 51°17' E 004°20'0 0.0
2017-Dec-08 00:59N 51°17' E 004°20'0 0.0
2017-Dec-08 00:26N 51°17' E 004°20'0 0.0
2017-Dec-07 23:59N 51°17' E 004°20'0 0.0
2017-Dec-07 23:26N 51°17' E 004°20'0 0.0
2017-Dec-07 22:56N 51°17' E 004°20'0 0.0
2017-Dec-07 22:29N 51°17' E 004°20'0 0.0
2017-Dec-07 21:59N 51°17' E 004°20'0 0.0
2017-Dec-07 21:23N 51°17' E 004°20'0 0.0
2017-Dec-07 20:59N 51°17' E 004°20'0 0.0
2017-Dec-07 20:29N 51°17' E 004°20'0 0.0
2017-Dec-07 19:59N 51°17' E 004°20'0 0.0
2017-Dec-07 19:29N 51°17' E 004°20'0 0.0
2017-Dec-07 18:59N 51°17' E 004°20'0 0.0
2017-Dec-07 18:29N 51°17' E 004°20'0 0.0
2017-Dec-07 17:59N 51°17' E 004°20'0 0.0
2017-Dec-07 17:29N 51°17' E 004°20'0 0.0
2017-Dec-07 16:59N 51°17' E 004°20'0 0.0
2017-Dec-07 16:29N 51°17' E 004°20'0 0.0
2017-Dec-07 15:59N 51°17' E 004°20'0 0.0
2017-Dec-07 15:29N 51°17' E 004°20'0 0.0
2017-Dec-07 14:59N 51°17' E 004°20'0 0.0
2017-Dec-07 14:29N 51°17' E 004°20'0 0.0
2017-Dec-07 13:59N 51°17' E 004°20'0 0.0
2017-Dec-07 13:29N 51°17' E 004°20'0 0.0
2017-Dec-07 12:59N 51°17' E 004°20'0 0.0
2017-Dec-07 12:29N 51°17' E 004°20'0 0.0
2017-Dec-07 11:59N 51°17' E 004°20'0 0.0
2017-Dec-07 11:29N 51°17' E 004°20'0 0.0
2017-Dec-07 10:59N 51°17' E 004°20'0 0.0
2017-Dec-07 10:29N 51°17' E 004°20'0 0.0
2017-Dec-07 09:59N 51°17' E 004°20'0 0.0
2017-Dec-07 09:29N 51°17' E 004°20'0 0.0
2017-Dec-07 08:59N 51°17' E 004°20'0 0.0
2017-Dec-07 08:29N 51°17' E 004°20'0 0.0
2017-Dec-07 07:53N 51°17' E 004°20'0 0.0
2017-Dec-07 07:29N 51°17' E 004°20'0 0.0
2017-Dec-07 06:56N 51°17' E 004°20'0 0.0
2017-Dec-07 06:29N 51°17' E 004°20'0 0.0
2017-Dec-07 05:59N 51°17' E 004°20'0 0.0
2017-Dec-07 05:23N 51°17' E 004°20'0 0.0
2017-Dec-07 04:59N 51°17' E 004°20'0 0.0
2017-Dec-07 04:17N 51°17' E 004°20'0 0.0
2017-Dec-07 03:56N 51°17' E 004°20'0 0.0
2017-Dec-07 03:29N 51°17' E 004°20'0 0.0
2017-Dec-07 02:59N 51°17' E 004°20'0 0.0
2017-Dec-07 02:29N 51°17' E 004°20'0 0.0
2017-Dec-07 01:59N 51°17' E 004°20'0 0.0
2017-Dec-07 01:29N 51°17' E 004°20'0 0.0
2017-Dec-07 00:56N 51°17' E 004°20'0 0.0
2017-Dec-07 00:29N 51°17' E 004°20'0 0.0
2017-Dec-06 23:53N 51°17' E 004°20'0 0.0
2017-Dec-06 23:29N 51°17' E 004°20'0 0.0
2017-Dec-06 22:59N 51°17' E 004°20'0 0.0
2017-Dec-06 22:29N 51°17' E 004°20'0 0.0
2017-Dec-06 21:59N 51°17' E 004°20'0 0.0
2017-Dec-06 21:11N 51°17' E 004°20'0 0.0
2017-Dec-06 20:59N 51°17' E 004°20'  
2017-Dec-04 10:23N 51°17' E 004°20'0 0.0
2017-Dec-04 09:53N 51°17' E 004°20'0 0.0
2017-Dec-04 09:29N 51°17' E 004°20'0 0.0
2017-Dec-04 08:56N 51°17' E 004°20'0 0.0
2017-Dec-04 08:29N 51°17' E 004°20'0 0.0
2017-Dec-04 07:59N 51°17' E 004°20'0 0.0
2017-Dec-04 07:29N 51°17' E 004°20'0 0.0
2017-Dec-04 06:56N 51°17' E 004°20'0 0.0
2017-Dec-04 06:29N 51°17' E 004°20'0 0.0
2017-Dec-04 05:59N 51°17' E 004°20'0 0.0
2017-Dec-04 05:29N 51°17' E 004°20'0 0.0
2017-Dec-04 04:53N 51°17' E 004°20'0 0.0
2017-Dec-04 04:26N 51°17' E 004°20'0 0.0
2017-Dec-04 03:59N 51°17' E 004°20'0 0.0
2017-Dec-04 03:29N 51°17' E 004°20'0 0.0
2017-Dec-04 02:59N 51°17' E 004°20'0 0.0
2017-Dec-04 02:23N 51°17' E 004°20'0 0.0
2017-Dec-04 01:59N 51°17' E 004°20'0 0.0
2017-Dec-04 01:29N 51°17' E 004°20'0 0.0
2017-Dec-04 00:53N 51°17' E 004°20'0 0.0
2017-Dec-04 00:29N 51°17' E 004°20'0 0.0
2017-Dec-03 23:59N 51°17' E 004°20'0 0.0
2017-Dec-03 23:29N 51°17' E 004°20'0 0.0
2017-Dec-03 22:59N 51°17' E 004°20'0 0.0
2017-Dec-03 22:29N 51°17' E 004°20'0 0.0
2017-Dec-03 21:59N 51°17' E 004°20'0 0.0
2017-Dec-03 21:29N 51°17' E 004°20'0 0.0
2017-Dec-03 20:59N 51°17' E 004°20'0 0.0
2017-Dec-03 20:29N 51°17' E 004°20'0 0.0
2017-Dec-03 19:53N 51°17' E 004°20'0 0.0
2017-Dec-03 19:29N 51°17' E 004°20'0 0.0
2017-Dec-03 18:59N 51°17' E 004°20'0 0.0
2017-Dec-03 18:29N 51°17' E 004°20'0 0.0
2017-Dec-03 17:59N 51°17' E 004°20'0 0.0
2017-Dec-03 17:29N 51°17' E 004°20'0 0.0
2017-Dec-03 16:59N 51°17' E 004°20'0 0.0
2017-Dec-03 16:29N 51°17' E 004°20'0 0.0
2017-Dec-03 15:59N 51°17' E 004°20'0 0.0
2017-Dec-03 15:29N 51°17' E 004°20'0 0.0
2017-Dec-03 14:59N 51°17' E 004°20'0 0.0
2017-Dec-03 14:29N 51°17' E 004°20'0 0.0
2017-Dec-03 13:56N 51°17' E 004°20'0 0.0
2017-Dec-03 13:29N 51°17' E 004°20'0 0.0
2017-Dec-03 12:59N 51°17' E 004°20'0 0.0
2017-Dec-03 12:26N 51°17' E 004°20'0 0.0
2017-Dec-03 11:59N 51°17' E 004°20'0 0.0
2017-Dec-03 11:29N 51°17' E 004°20'0 0.0
2017-Dec-03 10:59N 51°17' E 004°20'0 0.0
2017-Dec-03 10:29N 51°17' E 004°20'0 0.0
2017-Dec-03 09:59N 51°17' E 004°20'0 0.0
2017-Dec-03 09:29N 51°17' E 004°20'0 0.0
2017-Dec-03 08:59N 51°17' E 004°20'0 0.0
2017-Dec-03 08:26N 51°17' E 004°20'0 0.0
2017-Dec-03 07:59N 51°17' E 004°20'0 0.0
2017-Dec-03 07:29N 51°17' E 004°20'0 0.0
2017-Dec-03 06:59N 51°17' E 004°20'0 0.0
2017-Dec-03 06:26N 51°17' E 004°20'0 0.0
2017-Dec-03 05:56N 51°17' E 004°20'0 0.0
2017-Dec-03 05:29N 51°17' E 004°20'0 0.0
2017-Dec-03 04:59N 51°17' E 004°20'0 0.0
2017-Dec-03 04:23N 51°17' E 004°20'0 0.0
2017-Dec-03 03:59N 51°17' E 004°20'0 0.0
2017-Dec-03 03:29N 51°17' E 004°20'0 0.0
2017-Dec-03 02:56N 51°17' E 004°20'0 0.0
2017-Dec-03 02:29N 51°17' E 004°20'0 0.0
2017-Dec-03 01:59N 51°17' E 004°20'0 0.0
2017-Dec-03 01:29N 51°17' E 004°20'0 0.0
2017-Dec-03 00:59N 51°17' E 004°20'0 0.0
2017-Dec-03 00:29N 51°17' E 004°20'0 0.0
2017-Dec-02 23:50N 51°17' E 004°20'0 0.0
2017-Dec-02 23:20N 51°17' E 004°20'0 0.0
2017-Dec-02 22:53N 51°17' E 004°20'0 0.0
2017-Dec-02 22:23N 51°17' E 004°20'0 0.0
2017-Dec-02 21:56N 51°17' E 004°20'0 0.0
2017-Dec-02 21:29N 51°17' E 004°20'0 0.0
2017-Dec-02 20:59N 51°17' E 004°20'0 0.0
2017-Dec-02 20:29N 51°17' E 004°20'0 0.0
2017-Dec-02 19:59N 51°17' E 004°20'0 0.0
2017-Dec-02 19:29N 51°17' E 004°20'0 0.0
2017-Dec-02 18:59N 51°17' E 004°20'0 0.0
2017-Dec-02 18:29N 51°17' E 004°20'0 0.0
2017-Dec-02 17:59N 51°17' E 004°20'0 0.0
2017-Dec-02 17:29N 51°17' E 004°20'0 0.0
2017-Dec-02 16:53N 51°17' E 004°20'0 0.0
2017-Dec-02 16:29N 51°17' E 004°20'0 0.0
2017-Dec-02 15:59N 51°17' E 004°20'0 0.0
2017-Dec-02 15:25N 51°17' E 004°20'0 0.0
2017-Dec-02 14:59N 51°17' E 004°20'0 0.0
2017-Dec-02 14:28N 51°17' E 004°20'0 0.0
2017-Dec-02 13:58N 51°17' E 004°20'0 0.0
2017-Dec-02 13:23N 51°17' E 004°20'0 0.0
2017-Dec-02 12:59N 51°17' E 004°20'0 0.0
2017-Dec-02 12:29N 51°17' E 004°20'0 0.0
2017-Dec-02 11:56N 51°17' E 004°20'0 0.0
2017-Dec-02 11:26N 51°17' E 004°20'0 0.0
2017-Dec-02 10:58N 51°17' E 004°20'0 0.0
2017-Dec-02 10:26N 51°17' E 004°20'0 0.0
2017-Dec-02 09:55N 51°17' E 004°20'0 0.0
2017-Dec-02 09:26N 51°17' E 004°20'0 0.0
2017-Dec-02 08:59N 51°17' E 004°20'0 0.0
2017-Dec-02 08:28N 51°17' E 004°20'0 0.0
2017-Dec-02 07:58N 51°17' E 004°20'0 0.0
2017-Dec-02 07:28N 51°17' E 004°20'0 0.0
2017-Dec-02 06:59N 51°17' E 004°20'0 0.0
2017-Dec-02 06:29N 51°17' E 004°20'0 0.0
2017-Dec-02 05:59N 51°17' E 004°20'0 0.0
2017-Dec-02 05:28N 51°17' E 004°20'0 0.0
2017-Dec-02 04:58N 51°17' E 004°20'0 0.0
2017-Dec-02 04:29N 51°17' E 004°20'0 0.0
2017-Dec-02 03:58N 51°17' E 004°20'0 0.0
2017-Dec-02 03:28N 51°17' E 004°20'0 0.0
2017-Dec-02 02:58N 51°17' E 004°20'0 0.0
2017-Dec-02 02:28N 51°17' E 004°20'0 0.0
2017-Dec-02 01:58N 51°17' E 004°20'0 0.0
2017-Dec-02 01:28N 51°17' E 004°20'0 0.0
2017-Dec-02 00:55N 51°17' E 004°20'0 0.0
2017-Dec-02 00:22N 51°17' E 004°20'0 0.0
2017-Dec-01 23:58N 51°17' E 004°20'0 0.0
2017-Dec-01 23:28N 51°17' E 004°20'0 0.0
2017-Dec-01 22:58N 51°17' E 004°20'0 0.9
2017-Dec-01 22:30N 51°17' E 004°20'0 0.0
2017-Dec-01 22:00N 51°17' E 004°20'0 0.4
2017-Dec-01 21:30N 51°17' E 004°20'3 5.7
2017-Dec-01 21:00N 51°19' E 004°16'611.2
2017-Dec-01 20:30N 51°24' E 004°12'612.5
2017-Dec-01 20:00N 51°23' E 004°02'3 6.4
2017-Dec-01 19:30N 51°23' E 003°57'613.0
2017-Dec-01 19:00N 51°21' E 003°48'611.5
2017-Dec-01 18:30N 51°26' E 003°41'510.1
2017-Dec-01 18:00N 51°25' E 003°33'510.5
2017-Dec-01 17:30N 51°25' E 003°25'511.1
2017-Dec-01 17:00N 51°24' E 003°16'510.3
2017-Dec-01 16:30N 51°24' E 003°08'5 9.6
2017-Dec-01 16:00N 51°24' E 003°00'510.0
2017-Dec-01 15:29N 51°22' E 002°53'510.3
2017-Dec-01 15:00N 51°21' E 002°45'4 8.7
2017-Dec-01 14:30N 51°22' E 002°38'3 5.2
2017-Dec-01 14:00N 51°22' E 002°34'2 4.6
2017-Dec-01 13:29N 51°22' E 002°30'1 2.2
2017-Dec-01 12:59N 51°21' E 002°28'2 3.6
2017-Dec-01 12:29N 51°21' E 002°25'2 4.0
2017-Dec-01 12:00N 51°20' E 002°23'611.6
2017-Dec-01 11:30N 51°17' E 002°14'3 6.1
2017-Dec-01 10:59N 51°16' E 002°10'611.6
2017-Dec-01 10:30N 51°13' E 002°03'611.6
2017-Dec-01 10:00N 51°10' E 001°54'611.4
2017-Dec-01 09:30N 51°07' E 001°47'611.7
2017-Dec-01 09:00N 51°03' E 001°40'133 9.0
2017-Nov-30 18:20N 50°03' W 001°26'412.4
2017-Nov-30 18:00N 50°02' W 001°32'  

Dump ship's entire track history